Weather forecast for 1. Brazil Baixo Guandu

Paragliding World Cup, 75 m
N-19.510, E-41.017


Sounding

Red line — air temperature ˚C.
Blue line — thermal bubble temperature ˚C.
Green line — dew point temperature ˚C.
Wind speed is in meters per second.

Table forecast

GFS 0.25˚ model

temp. wind gust humid. clouds prec. press. hpbl
Mon14 00:00 19 98.0 e 1 2 81 70 0.0 1021 197
03:00 18 123.0 ese 1 1 85 12 0.0 1020 46
06:00 15 160.0 sse 1 1 94 5 0.0 1021 11
09:00 22 159.0 sse 1 1 60 1 0.0 1023 704
12:00 27 124.0 se 1 1 41 71 0.0 1020 1804
15:00 27 74.0 ene 1 2 37 54 0.0 1018 2021
18:00 20 93.0 e 3 7 60 82 0.0 1020 388
21:00 18 95.0 e 2 3 71 17 0.0 1021 147
 
Tue15 00:00 15 116.0 ese 1 1 85 0 0.0 1021 15
03:00 14 144.0 se 1 1 91 42 0.0 1020 10
06:00 14 220.0 sw 1 1 93 100 0.0 1021 11
09:00 20 285.0 wnw 1 0 61 100 0.0 1022 521
12:00 25 341.0 nnw 1 1 44 100 0.0 1019 1337
15:00 25 352.0 n 1 2 42 10 0.0 1016 1614
18:00 19 17.0 nne 1 1 60 5 0.0 1017 11
21:00 17 86.0 e 2 2 70 0 0.0 1018 21
 
Wed16 00:00 15 111.0 ese 2 2 87 0 0.0 1018 24
03:00 14 150.0 sse 1 1 93 0 0.0 1017 11
06:00 14 166.0 sse 0 1 94 0 0.0 1018 11
09:00 21 229.0 sw 1 1 60 0 0.0 1019 480
12:00 28 178.0 s 0 1 39 0 0.0 1017 1262
15:00 29 96.0 e 1 2 35 1 0.0 1014 1845
18:00 21 96.0 e 3 6 62 5 0.0 1016 159
21:00 17 101.0 e 3 5 88 0 0.0 1019 151
 
Thu17 00:00 16 96.0 e 1 1 96 5 0.0 1020 13
03:00 15 129.0 se 1 1 97 6 0.0 1019 11
06:00 15 273.0 w 0 0 97 93 0.0 1021 12
09:00 18 259.0 w 1 1 81 100 0.0 1022 274
12:00 21 245.0 wsw 1 1 68 100 0.0 1021 504
15:00 25 227.0 sw 1 1 52 11 0.0 1018 1085
18:00 19 222.0 sw 1 1 71 42 0.0 1020 11
21:00 20 110.0 ese 2 2 70 100 0.0 1021 73
 
Fri18 00:00 17 109.0 ese 1 1 87 4 0.0 1021 11
03:00 16 148.0 sse 1 1 92 14 0.0 1021 11
06:00 15 197.0 ssw 0 0 95 21 0.0 1022 11
09:00 22 258.0 wsw 0 0 62 5 0.0 1024 546
12:00 28 18.0 nne 1 1 42 98 0.0 1022 1855
15:00 25 53.0 ne 2 2 49 99 0.1 1020 1090
18:00 21 86.0 e 3 6 72 68 0.0 1022 364
21:00 19 89.0 e 2 5 88 49 0.1 1024 245
 

0.013 s